createdAt,value
2024-02-06T00:00:43.033Z,101459.78
2024-02-06T00:03:13.575Z,101459.78
2024-02-06T00:05:44.015Z,101469.53
2024-02-06T00:08:14.587Z,101466.44
2024-02-06T00:10:45.242Z,101477.50
2024-02-06T00:13:15.870Z,101470.34
2024-02-06T00:15:47.595Z,101469.53
2024-02-06T00:18:18.303Z,101479.13
2024-02-06T00:20:48.822Z,101486.44
2024-02-06T00:23:19.372Z,101481.19
2024-02-06T00:25:49.664Z,101484.47
2024-02-06T00:28:20.746Z,101489.81
2024-02-06T00:30:52.418Z,101489.19
2024-02-06T00:33:26.981Z,101487.25
2024-02-06T00:35:57.907Z,101488.38
2024-02-06T00:38:28.354Z,101491.44
2024-02-06T00:40:58.868Z,101489.50
2024-02-06T00:43:29.434Z,101485.91
2024-02-06T00:46:01.301Z,101487.56
2024-02-06T00:48:31.946Z,101494.72
2024-02-06T00:51:02.714Z,101493.09
2024-02-06T00:53:33.191Z,101503.00
2024-02-06T00:56:03.731Z,101506.59
2024-02-06T00:58:34.570Z,101509.66
2024-02-06T01:01:05.245Z,101511.31
2024-02-06T01:03:36.092Z,101510.28
2024-02-06T01:06:06.737Z,101509.16
2024-02-06T01:08:37.310Z,101509.66
2024-02-06T01:11:07.949Z,101511.31
2024-02-06T01:13:38.791Z,101513.56
2024-02-06T01:16:11.164Z,101517.44
2024-02-06T01:18:41.920Z,101525.13
2024-02-06T01:21:12.433Z,101526.84
2024-02-06T01:23:43.204Z,101519.38
2024-02-06T01:26:17.130Z,101526.84
2024-02-06T01:28:49.294Z,101533.41
2024-02-06T01:31:20.033Z,101540.06
2024-02-06T01:33:50.607Z,101538.09
2024-02-06T01:36:21.283Z,101536.66
2024-02-06T01:38:51.761Z,101545.28
2024-02-06T01:41:22.649Z,101544.97
2024-02-06T01:43:53.121Z,101559.00
2024-02-06T01:46:27.206Z,101554.69
2024-02-06T01:48:59.583Z,101556.66
2024-02-06T01:51:35.094Z,101561.53
2024-02-06T01:54:06.272Z,101560.22
2024-02-06T01:56:38.982Z,101567.38
2024-02-06T01:59:10.094Z,101567.59
2024-02-06T02:01:40.448Z,101571.19
2024-02-06T02:04:13.202Z,101579.47
2024-02-06T02:06:43.963Z,101582.53
2024-02-06T02:09:14.532Z,101582.25
2024-02-06T02:11:46.002Z,101587.44
2024-02-06T02:14:17.443Z,101579.16
2024-02-06T02:16:48.726Z,101584.09
2024-02-06T02:19:19.624Z,101575.97
2024-02-06T02:21:50.275Z,101576.81
2024-02-06T02:24:23.102Z,101582.34
2024-02-06T02:26:53.873Z,101573.72
2024-02-06T02:29:25.788Z,101578.47
2024-02-06T02:31:57.724Z,101582.22
2024-02-06T02:34:28.356Z,101579.47
2024-02-06T02:36:58.995Z,101581.94
2024-02-06T02:39:29.490Z,101579.06
2024-02-06T02:41:59.948Z,101577.72
2024-02-06T02:44:30.379Z,101576.00
2024-02-06T02:47:00.865Z,101580.91
2024-02-06T02:49:31.437Z,101585.94
2024-02-06T02:52:02.083Z,101580.91
2024-02-06T02:54:32.645Z,101587.25
2024-02-06T02:57:03.177Z,101584.69
2024-02-06T02:59:33.605Z,101585.50
2024-02-06T03:02:04.260Z,101583.88
2024-02-06T03:04:35.450Z,101586.63
2024-02-06T03:07:06.747Z,101585.19
2024-02-06T03:09:39.317Z,101583.25
2024-02-06T03:12:11.041Z,101589.31
2024-02-06T03:14:41.498Z,101582.13
2024-02-06T03:17:11.914Z,101586.03
2024-02-06T03:19:44.292Z,101579.84
2024-02-06T03:22:14.857Z,101575.25
2024-02-06T03:24:45.307Z,101569.72
2024-02-06T03:27:15.688Z,101569.72
2024-02-06T03:29:46.813Z,101562.47
2024-02-06T03:32:17.572Z,101563.25
2024-02-06T03:34:48.064Z,101563.25
2024-02-06T03:37:19.531Z,101550.78
2024-02-06T03:39:50.301Z,101553.03
2024-02-06T03:42:21.396Z,101546.88
2024-02-06T03:44:52.427Z,101545.25
2024-02-06T03:47:23.330Z,101546.06
2024-02-06T03:49:53.858Z,101538.59
2024-02-06T03:52:24.588Z,101536.81
2024-02-06T03:54:55.175Z,101539.91
2024-02-06T03:57:25.854Z,101531.03
2024-02-06T03:59:56.482Z,101525.75
2024-02-06T04:02:27.414Z,101525.75
2024-02-06T04:04:58.015Z,101511.84
2024-02-06T04:07:28.621Z,101510.84
2024-02-06T04:09:59.259Z,101500.88
2024-02-06T04:12:29.779Z,101507.16
2024-02-06T04:15:00.406Z,101497.72
2024-02-06T04:17:30.907Z,101484.38
2024-02-06T04:20:01.556Z,101478.66
2024-02-06T04:22:32.129Z,101470.88
2024-02-06T04:25:02.716Z,101470.88
2024-02-06T04:27:33.420Z,101465.00
2024-02-06T04:30:03.958Z,101453.34
2024-02-06T04:32:35.262Z,101446.47
2024-02-06T04:35:05.640Z,101445.25
2024-02-06T04:37:36.372Z,101432.84
2024-02-06T04:40:07.238Z,101438.56
2024-02-06T04:42:37.935Z,101424.25
2024-02-06T04:45:10.028Z,101420.63
2024-02-06T04:47:40.631Z,101425.38
2024-02-06T04:50:11.565Z,101422.28
2024-02-06T04:52:42.453Z,101423.09
2024-02-06T04:55:13.382Z,101416.94
2024-02-06T04:57:44.133Z,101412.03
2024-02-06T05:00:18.213Z,101414.47
2024-02-06T05:02:49.163Z,101399.53
2024-02-06T05:05:19.757Z,101403.41
2024-02-06T05:07:51.043Z,101388.75
2024-02-06T05:10:21.793Z,101390.09
2024-02-06T05:12:52.331Z,101387.84
2024-02-06T05:15:22.794Z,101383.59
2024-02-06T05:17:53.327Z,101375.63
2024-02-06T05:20:23.854Z,101375.31
2024-02-06T05:22:54.292Z,101365.38
2024-02-06T05:25:25.228Z,101364.41
2024-02-06T05:27:55.976Z,101359.22
2024-02-06T05:30:26.693Z,101347.63
2024-02-06T05:32:57.346Z,101348.16
2024-02-06T05:35:27.954Z,101333.81
2024-02-06T05:38:01.553Z,101327.47
2024-02-06T05:40:33.341Z,101319.16
2024-02-06T05:43:03.951Z,101312.19
2024-02-06T05:45:35.331Z,101314.09
2024-02-06T05:48:05.521Z,101310.53
2024-02-06T05:50:37.008Z,101307.66
2024-02-06T05:53:07.916Z,101301.59
2024-02-06T05:55:38.413Z,101288.56
2024-02-06T05:58:08.834Z,101288.56
2024-02-06T06:00:39.222Z,101297.56
2024-02-06T06:03:09.861Z,101286.97
2024-02-06T06:05:40.458Z,101274.78
2024-02-06T06:08:11.160Z,101272.50
2024-02-06T06:10:41.823Z,101269.25
2024-02-06T06:13:12.317Z,101261.28
2024-02-06T06:15:43.663Z,101260.66
2024-02-06T06:18:14.307Z,101255.28
2024-02-06T06:20:44.929Z,101254.44
2024-02-06T06:23:15.423Z,101247.59
2024-02-06T06:25:45.730Z,101238.69
2024-02-06T06:28:16.300Z,101247.78
2024-02-06T06:30:46.857Z,101233.13
2024-02-06T06:33:17.424Z,101238.84
2024-02-06T06:35:48.147Z,101231.50
2024-02-06T06:38:18.712Z,101229.25
2024-02-06T06:40:49.320Z,101222.56
2024-02-06T06:43:20.312Z,101221.91
2024-02-06T06:45:50.879Z,101218.00
2024-02-06T06:48:21.744Z,101216.84
2024-02-06T06:50:52.327Z,101209.69
2024-02-06T06:53:23.160Z,101207.13
2024-02-06T06:55:53.838Z,101203.84
2024-02-06T06:58:24.410Z,101197.19
2024-02-06T07:00:55.907Z,101192.16
2024-02-06T07:03:26.549Z,101183.00
2024-02-06T07:05:57.236Z,101186.13
2024-02-06T07:08:27.723Z,101179.25
2024-02-06T07:10:58.262Z,101172.56
2024-02-06T07:13:28.590Z,101165.09
2024-02-06T07:15:59.149Z,101157.78
2024-02-06T07:18:29.820Z,101160.88
2024-02-06T07:21:00.316Z,101153.59
2024-02-06T07:23:30.970Z,101153.25
2024-02-06T07:26:03.678Z,101148.03
2024-02-06T07:28:35.947Z,101131.28
2024-02-06T07:31:06.731Z,101127.69
2024-02-06T07:33:38.127Z,101122.50
2024-02-06T07:36:09.722Z,101118.59
2024-02-06T07:38:40.336Z,101109.78
2024-02-06T07:41:10.923Z,101100.34
2024-02-06T07:43:41.414Z,101103.91
2024-02-06T07:46:12.037Z,101093.34
2024-02-06T07:49:06.807Z,101094.13
2024-02-06T07:51:38.181Z,101082.59
2024-02-06T07:54:44.420Z,101081.13
2024-02-06T07:57:18.210Z,101079.50
2024-02-06T07:59:50.311Z,101079.16
2024-02-06T08:02:21.188Z,101083.06
2024-02-06T08:04:57.106Z,101080.63
2024-02-06T08:07:33.735Z,101080.16
2024-02-06T08:10:08.687Z,101078.19
2024-02-06T08:12:42.194Z,101078.19
2024-02-06T08:15:13.119Z,101071.03
2024-02-06T08:17:45.836Z,101076.72
2024-02-06T08:20:17.114Z,101075.25
2024-02-06T08:22:53.522Z,101063.69
2024-02-06T08:25:32.067Z,101057.00
2024-02-06T08:28:09.299Z,101059.31
2024-02-06T08:30:40.045Z,101045.16
2024-02-06T08:33:10.537Z,101045.78
2024-02-06T08:35:41.094Z,101043.03
2024-02-06T08:38:15.544Z,101042.69
2024-02-06T08:40:46.411Z,101040.09
2024-02-06T08:43:18.328Z,101036.19
2024-02-06T08:45:49.424Z,101043.03
2024-02-06T08:48:20.466Z,101048.06
2024-02-06T08:50:53.186Z,101031.44
2024-02-06T08:53:23.688Z,101041.88
2024-02-06T08:55:54.190Z,101045.44
2024-02-06T08:58:25.422Z,101053.44
2024-02-06T09:00:56.406Z,101044.66
2024-02-06T09:03:27.001Z,101043.84
2024-02-06T09:05:57.922Z,101041.88
2024-02-06T09:08:28.512Z,101034.72
2024-02-06T09:10:58.976Z,101037.63
2024-02-06T09:13:29.761Z,101041.88
2024-02-06T09:16:02.186Z,101049.03
2024-02-06T09:18:33.552Z,101054.91
2024-02-06T09:21:04.778Z,101047.91
2024-02-06T09:23:35.149Z,101048.69
2024-02-06T09:26:05.620Z,101048.22
2024-02-06T09:28:36.129Z,101048.22
2024-02-06T09:31:06.956Z,101052.47
2024-02-06T09:33:37.868Z,101054.09
2024-02-06T09:36:10.831Z,101043.34
2024-02-06T09:38:41.478Z,101056.06
2024-02-06T09:41:14.059Z,101061.25
2024-02-06T09:43:47.003Z,101051.31
2024-02-06T09:46:17.997Z,101058.97
2024-02-06T09:48:48.654Z,101054.59
2024-02-06T09:51:20.783Z,101035.06
2024-02-06T09:53:51.446Z,101023.28
2024-02-06T09:56:23.275Z,101003.91
2024-02-06T09:58:54.053Z,100990.91
2024-02-06T10:01:26.264Z,100999.56
2024-02-06T10:04:01.477Z,101019.56
2024-02-06T10:06:33.988Z,101032.44
2024-02-06T10:09:05.915Z,101039.91
2024-02-06T10:11:37.968Z,101031.28
2024-02-06T10:14:09.307Z,101018.59
2024-02-06T10:16:40.261Z,101025.75
2024-02-06T10:19:10.939Z,101032.91
2024-02-06T10:21:42.032Z,101032.78
2024-02-06T10:24:12.949Z,101038.78
2024-02-06T10:26:43.488Z,101044.66
2024-02-06T10:29:21.103Z,101043.34
2024-02-06T10:31:52.238Z,101044.66
2024-02-06T10:34:23.871Z,101054.91
2024-02-06T10:37:03.346Z,101057.34
2024-02-06T10:39:34.110Z,101053.75
2024-02-06T10:44:39.000Z,101071.69
2024-02-06T10:47:09.756Z,101081.13
2024-02-06T10:49:40.388Z,101079.66
2024-02-06T10:52:12.491Z,101078.84
2024-02-06T10:54:43.105Z,101091.56
2024-02-06T10:57:17.214Z,101088.78
2024-02-06T10:59:56.165Z,101094.97
2024-02-06T11:02:29.341Z,101086.66
2024-02-06T11:05:15.454Z,101093.00
2024-02-06T11:07:58.585Z,101107.69
2024-02-06T11:10:45.528Z,101106.84
2024-02-06T11:13:23.639Z,101104.41
2024-02-06T11:15:59.379Z,101113.22
2024-02-06T11:18:33.733Z,101110.75
2024-02-06T11:21:08.354Z,101107.69
2024-02-06T11:23:39.465Z,101116.28
2024-02-06T11:26:11.706Z,101116.78
2024-02-06T11:28:42.781Z,101113.69
2024-02-06T11:31:13.481Z,101116.47
2024-02-06T11:33:45.483Z,101108.16
2024-02-06T11:36:19.725Z,101117.28
2024-02-06T11:38:50.426Z,101119.25
2024-02-06T11:41:41.963Z,101121.69
2024-02-06T11:44:16.043Z,101119.72
2024-02-06T11:46:51.424Z,101125.91
2024-02-06T11:49:29.736Z,101131.47
2024-02-06T11:52:00.741Z,101134.22
2024-02-06T11:54:31.982Z,101139.13
2024-02-06T11:57:04.022Z,101148.06
2024-02-06T11:59:34.842Z,101143.34
2024-02-06T12:02:15.073Z,101144.16
2024-02-06T12:04:46.074Z,101150.84
2024-02-06T12:07:18.695Z,101158.81
2024-02-06T12:09:52.870Z,101159.94
2024-02-06T12:12:23.903Z,101159.63
2024-02-06T12:14:54.815Z,101159.63
2024-02-06T12:17:26.423Z,101162.41
2024-02-06T12:19:57.189Z,101159.63
2024-02-06T12:22:27.987Z,101174.63
2024-02-06T12:25:05.667Z,101180.16
2024-02-06T12:27:36.731Z,101184.56
2024-02-06T12:30:07.541Z,101184.06
2024-02-06T12:32:39.045Z,101182.44
2024-02-06T12:35:09.420Z,101185.69
2024-02-06T12:37:40.153Z,101187.31
2024-02-06T12:40:11.382Z,101189.59
2024-02-06T12:42:41.524Z,101194.50
2024-02-06T12:45:12.308Z,101199.53
2024-02-06T12:47:43.724Z,101196.78
2024-02-06T12:50:15.210Z,101196.56
2024-02-06T12:52:52.581Z,101204.09
2024-02-06T12:55:23.770Z,101209.63
2024-02-06T12:58:00.729Z,101213.69
2024-02-06T13:00:31.463Z,101223.13
2024-02-06T13:03:03.872Z,101227.03
2024-02-06T13:05:37.760Z,101225.41
2024-02-06T13:08:16.178Z,101221.84
2024-02-06T13:10:46.800Z,101225.09
2024-02-06T13:13:23.939Z,101230.94
2024-02-06T13:15:54.465Z,101237.31
2024-02-06T13:18:24.980Z,101237.16
2024-02-06T13:21:01.607Z,101235.50
2024-02-06T13:23:32.263Z,101244.63
2024-02-06T13:26:07.869Z,101244.78
2024-02-06T13:28:38.602Z,101249.16
2024-02-06T13:31:11.034Z,101244.78
2024-02-06T13:33:43.961Z,101256.16
2024-02-06T13:36:14.528Z,101253.72
2024-02-06T13:38:45.048Z,101250.75
2024-02-06T13:41:15.598Z,101258.44
2024-02-06T13:43:46.851Z,101252.91
2024-02-06T13:46:21.220Z,101253.09
2024-02-06T13:48:52.578Z,101253.09
2024-02-06T13:51:23.300Z,101255.03
2024-02-06T13:53:54.047Z,101264.16
2024-02-06T13:56:27.459Z,101269.50
2024-02-06T13:58:58.570Z,101266.75
2024-02-06T14:01:29.512Z,101267.06
2024-02-06T14:04:00.929Z,101272.59
2024-02-06T14:06:31.592Z,101280.53
2024-02-06T14:09:02.140Z,101283.03
2024-02-06T14:12:29.562Z,101292.09
2024-02-06T14:15:03.047Z,101290.66
2024-02-06T14:17:33.488Z,101294.75
2024-02-06T14:20:04.370Z,101289.50
2024-02-06T14:22:35.190Z,101296.63
2024-02-06T14:25:08.320Z,101299.22
2024-02-06T14:27:38.911Z,101302.31
2024-02-06T14:30:10.851Z,101309.63
2024-02-06T14:32:41.464Z,101308.81
2024-02-06T14:35:12.908Z,101319.06
2024-02-06T14:37:43.601Z,101319.06
2024-02-06T14:40:17.323Z,101326.22
2024-02-06T14:42:48.008Z,101328.50
2024-02-06T14:45:20.092Z,101334.66
2024-02-06T14:47:50.646Z,101334.84
2024-02-06T14:50:21.577Z,101337.94
2024-02-06T14:52:52.588Z,101337.13
2024-02-06T14:55:22.951Z,101341.31
2024-02-06T14:57:53.362Z,101349.16
2024-02-06T15:00:23.921Z,101356.66
2024-02-06T15:03:25.769Z,101344.47
2024-02-06T15:06:11.307Z,101339.44
2024-02-06T15:08:57.406Z,101349.19
2024-02-06T15:11:38.046Z,101343.84
2024-02-06T15:14:08.648Z,101351.97
2024-02-06T15:17:01.119Z,101356.16
2024-02-06T15:19:46.414Z,101353.56
2024-02-06T15:22:17.383Z,101353.56
2024-02-06T15:24:56.805Z,101359.38
2024-02-06T15:27:46.086Z,101351.91
2024-02-06T15:30:17.459Z,101350.78
2024-02-06T15:32:48.252Z,101355.16
2024-02-06T15:35:19.619Z,101353.06
2024-02-06T15:37:49.849Z,101341.81
2024-02-06T15:40:20.453Z,101345.03
2024-02-06T15:42:51.192Z,101345.88
2024-02-06T15:45:22.519Z,101337.75
2024-02-06T15:47:53.007Z,101349.19
2024-02-06T15:50:23.593Z,101341.19
2024-02-06T15:52:54.262Z,101339.09
2024-02-06T15:55:24.894Z,101338.94
2024-02-06T15:57:55.486Z,101333.41
2024-02-06T16:00:25.883Z,101337.28
2024-02-06T16:02:56.513Z,101338.94
2024-02-06T16:05:29.874Z,101335.38
2024-02-06T16:08:00.805Z,101335.66
2024-02-06T16:10:31.439Z,101338.13
2024-02-06T16:13:01.914Z,101332.91
2024-02-06T16:15:32.528Z,101331.75
2024-02-06T16:18:03.067Z,101335.66
2024-02-06T16:20:33.771Z,101337.28
2024-02-06T16:23:04.429Z,101330.13
2024-02-06T16:25:35.002Z,101326.56
2024-02-06T16:28:05.701Z,101322.31
2024-02-06T16:30:36.218Z,101329.31
2024-02-06T16:33:07.467Z,101328.50
2024-02-06T16:35:38.737Z,101326.84
2024-02-06T16:38:09.311Z,101326.06
2024-02-06T16:40:42.449Z,101324.09
2024-02-06T16:43:13.001Z,101321.31
2024-02-06T16:45:47.152Z,101317.75
2024-02-06T16:48:18.016Z,101320.53
2024-02-06T16:50:48.502Z,101312.72
2024-02-06T16:53:19.169Z,101310.09
2024-02-06T16:55:50.171Z,101320.81
2024-02-06T16:58:21.384Z,101321.16
2024-02-06T17:00:51.866Z,101320.34
2024-02-06T17:03:22.581Z,101310.88
2024-02-06T17:05:53.504Z,101312.03
2024-02-06T17:08:24.490Z,101318.72
2024-02-06T17:10:55.022Z,101309.56
2024-02-06T17:13:25.788Z,101298.50
2024-02-06T17:15:56.298Z,101297.72
2024-02-06T17:18:31.575Z,101304.38
2024-02-06T17:21:02.378Z,101304.38
2024-02-06T17:23:33.249Z,101294.44
2024-02-06T17:26:04.969Z,101295.88
2024-02-06T17:28:35.721Z,101300.47
2024-02-06T17:31:06.159Z,101296.72
2024-02-06T17:33:36.958Z,101288.41
2024-02-06T17:36:07.924Z,101300.28
2024-02-06T17:38:39.500Z,101299.47
2024-02-06T17:41:10.744Z,101294.44
2024-02-06T17:43:41.923Z,101297.22
2024-02-06T17:46:18.131Z,101293.59
2024-02-06T17:48:48.737Z,101297.22
2024-02-06T17:51:19.222Z,101285.50
2024-02-06T17:53:49.845Z,101281.91
2024-02-06T17:56:20.278Z,101285.50
2024-02-06T17:58:50.961Z,101285.50
2024-02-06T18:01:21.594Z,101276.72
2024-02-06T18:03:52.284Z,101273.09
2024-02-06T18:06:23.104Z,101268.72
2024-02-06T18:08:53.549Z,101260.09
2024-02-06T18:11:24.160Z,101268.41
2024-02-06T18:13:54.854Z,101265.63
2024-02-06T18:16:25.622Z,101261.75
2024-02-06T18:19:20.655Z,101265.63
2024-02-06T18:21:51.138Z,101269.22
2024-02-06T18:24:21.606Z,101261.75
2024-02-06T18:26:52.053Z,101255.72
2024-02-06T18:29:22.597Z,101261.25
2024-02-06T18:31:54.275Z,101256.84
2024-02-06T18:34:25.110Z,101264.81
2024-02-06T18:36:55.685Z,101255.03
2024-02-06T18:39:26.541Z,101250.00
2024-02-06T18:41:57.457Z,101251.31
2024-02-06T18:44:27.889Z,101249.66
2024-02-06T18:47:00.303Z,101243.63
2024-02-06T18:49:31.759Z,101247.03
2024-02-06T18:52:03.100Z,101249.00
2024-02-06T18:54:37.875Z,101244.28
2024-02-06T18:57:08.435Z,101240.69
2024-02-06T18:59:39.028Z,101244.28
2024-02-06T19:02:09.638Z,101243.13
2024-02-06T19:04:40.869Z,101241.50
2024-02-06T19:07:11.556Z,101237.09
2024-02-06T19:09:42.992Z,101237.44
2024-02-06T19:12:13.510Z,101229.94
2024-02-06T19:14:44.207Z,101236.59
2024-02-06T19:17:14.864Z,101234.16
2024-02-06T19:19:48.979Z,101229.94
2024-02-06T19:22:19.849Z,101227.50
2024-02-06T19:24:50.383Z,101227.50
2024-02-06T19:27:29.531Z,101228.63
2024-02-06T19:29:59.984Z,101227.34
2024-02-06T19:32:30.472Z,101214.31
2024-02-06T19:35:01.242Z,101213.50
2024-02-06T19:37:31.845Z,101217.41
2024-02-06T19:40:02.583Z,101213.16
2024-02-06T19:42:33.668Z,101207.97
2024-02-06T19:45:04.114Z,101207.13
2024-02-06T19:47:34.930Z,101207.47
2024-02-06T19:50:05.692Z,101207.97
2024-02-06T19:52:36.364Z,101205.19
2024-02-06T19:55:07.605Z,101203.56
2024-02-06T19:57:41.014Z,101194.13
2024-02-06T20:00:13.833Z,101199.97
2024-02-06T20:02:59.761Z,101191.16
2024-02-06T20:05:59.862Z,101191.50
2024-02-06T20:08:33.486Z,101191.50
2024-02-06T20:11:07.942Z,101188.41
2024-02-06T20:13:38.455Z,101193.78
2024-02-06T20:16:09.670Z,101188.25
2024-02-06T20:19:35.255Z,101190.50
2024-02-06T20:22:05.968Z,101187.44
2024-02-06T20:24:36.542Z,101185.47
2024-02-06T20:27:07.529Z,101192.97
2024-02-06T20:29:38.527Z,101193.78
2024-02-06T20:32:10.391Z,101187.09
2024-02-06T20:34:42.151Z,101183.34
2024-02-06T20:37:12.707Z,101194.09
2024-02-06T20:39:43.265Z,101196.88
2024-02-06T20:42:13.781Z,101191.63
2024-02-06T20:44:46.705Z,101193.88
2024-02-06T20:47:18.167Z,101192.97
2024-02-06T20:49:49.000Z,101188.34
2024-02-06T20:52:19.680Z,101193.88
2024-02-06T20:54:50.221Z,101195.03
2024-02-06T20:57:20.926Z,101183.47
2024-02-06T20:59:51.392Z,101192.78
2024-02-06T21:02:21.998Z,101194.19
2024-02-06T21:04:52.650Z,101192.56
2024-02-06T21:07:23.294Z,101185.09
2024-02-06T21:09:53.846Z,101186.22
2024-02-06T21:12:24.711Z,101181.00
2024-02-06T21:14:55.979Z,101188.16
2024-02-06T21:17:27.374Z,101189.00
2024-02-06T21:19:59.599Z,101194.53
2024-02-06T21:22:30.334Z,101193.69
2024-02-06T21:25:00.887Z,101194.19
2024-02-06T21:27:31.438Z,101194.03
2024-02-06T21:30:01.937Z,101195.97
2024-02-06T21:32:32.397Z,101204.75
2024-02-06T21:35:02.993Z,101203.97
2024-02-06T21:37:33.651Z,101207.69
2024-02-06T21:40:04.188Z,101206.84
2024-02-06T21:42:34.665Z,101207.19
2024-02-06T21:45:07.756Z,101211.59
2024-02-06T21:47:40.240Z,101207.19
2024-02-06T21:50:12.525Z,101213.84
2024-02-06T21:52:43.394Z,101209.13
2024-02-06T21:55:14.451Z,101215.78
2024-02-06T21:57:44.822Z,101217.25
2024-02-06T22:00:15.760Z,101219.69
2024-02-06T22:02:47.236Z,101215.78
2024-02-06T22:05:18.160Z,101220.81
2024-02-06T22:07:49.080Z,101221.63
2024-02-06T22:10:23.977Z,101225.88
2024-02-06T22:12:54.671Z,101221.63
2024-02-06T22:15:25.638Z,101230.72
2024-02-06T22:17:56.213Z,101236.59
2024-02-06T22:20:28.630Z,101233.66
2024-02-06T22:22:59.474Z,101244.06
2024-02-06T22:25:30.057Z,101235.75
2024-02-06T22:28:00.714Z,101246.19
2024-02-06T22:30:31.218Z,101241.13
2024-02-06T22:33:01.677Z,101249.41
2024-02-06T22:35:33.279Z,101253.81
2024-02-06T22:38:03.744Z,101257.69
2024-02-06T22:40:34.243Z,101262.44
2024-02-06T22:43:05.068Z,101260.47
2024-02-06T22:45:35.527Z,101267.97
2024-02-06T22:48:06.289Z,101268.75
2024-02-06T22:50:37.889Z,101277.38
2024-02-06T22:53:08.579Z,101277.38
2024-02-06T22:55:39.319Z,101276.25
2024-02-06T22:58:09.856Z,101276.75
2024-02-06T23:01:05.345Z,101267.50
2024-02-06T23:03:37.321Z,101275.81
2024-02-06T23:06:08.274Z,101279.66
2024-02-06T23:08:38.940Z,101280.78
2024-02-06T23:11:09.524Z,101284.16
2024-02-06T23:13:40.248Z,101283.16
2024-02-06T23:16:12.568Z,101283.34
2024-02-06T23:18:43.463Z,101288.69
2024-02-06T23:21:18.756Z,101294.72
2024-02-06T23:23:49.200Z,101297.31
2024-02-06T23:26:19.949Z,101298.94
2024-02-06T23:28:51.119Z,101304.47
2024-02-06T23:31:21.701Z,101308.03
2024-02-06T23:33:52.135Z,101299.56
2024-02-06T23:36:23.074Z,101306.72
2024-02-06T23:39:08.917Z,101311.94
2024-02-06T23:41:45.759Z,101313.38
2024-02-06T23:44:16.224Z,101313.69
2024-02-06T23:46:46.870Z,101317.59
2024-02-06T23:49:17.822Z,101318.59
2024-02-06T23:51:48.391Z,101332.44
2024-02-06T23:54:19.149Z,101334.97
2024-02-06T23:56:50.115Z,101332.53
2024-02-06T23:59:20.846Z,101339.72
